createdAt,value
2019-04-05T00:00:25.012Z,91.60
2019-04-05T00:02:52.066Z,91.60
2019-04-05T00:05:19.060Z,91.50
2019-04-05T00:07:46.068Z,91.60
2019-04-05T00:10:13.274Z,91.40
2019-04-05T00:12:40.388Z,91.50
2019-04-05T00:15:15.053Z,91.10
2019-04-05T00:17:36.400Z,91.50
2019-04-05T00:20:04.113Z,91.50
2019-04-05T00:22:31.179Z,91.80
2019-04-05T00:24:58.261Z,92.20
2019-04-05T00:27:25.268Z,92.60
2019-04-05T00:29:52.368Z,92.50
2019-04-05T00:32:19.405Z,92.70
2019-04-05T00:34:46.435Z,92.80
2019-04-05T00:37:13.502Z,92.80
2019-04-05T00:39:40.531Z,93.00
2019-04-05T00:42:07.626Z,92.90
2019-04-05T00:44:34.627Z,92.70
2019-04-05T00:47:01.747Z,92.60
2019-04-05T00:49:28.846Z,92.70
2019-04-05T00:51:55.877Z,92.60
2019-04-05T00:54:22.989Z,91.90
2019-04-05T00:56:50.067Z,91.50
2019-04-05T00:59:17.179Z,91.50
2019-04-05T01:01:44.618Z,91.40
2019-04-05T01:04:11.523Z,91.70
2019-04-05T01:06:38.631Z,91.50
2019-04-05T01:09:06.319Z,91.40
2019-04-05T01:11:52.698Z,91.10
2019-04-05T01:14:20.167Z,91.20
2019-04-05T01:16:47.152Z,91.00
2019-04-05T01:19:14.674Z,91.40
2019-04-05T01:21:44.940Z,91.50
2019-04-05T01:24:12.932Z,91.50
2019-04-05T01:26:42.663Z,91.50
2019-04-05T01:29:09.953Z,91.50
2019-04-05T01:31:36.955Z,91.50
2019-04-05T01:34:05.600Z,91.40
2019-04-05T01:36:32.865Z,91.50
2019-04-05T01:38:59.808Z,91.50
2019-04-05T01:41:26.717Z,90.90
2019-04-05T01:43:53.700Z,90.80
2019-04-05T01:46:20.925Z,90.50
2019-04-05T01:48:47.959Z,90.40
2019-04-05T01:51:15.000Z,90.30
2019-04-05T01:53:42.066Z,90.10
2019-04-05T01:56:09.053Z,89.90
2019-04-05T01:58:36.053Z,90.20
2019-04-05T02:01:03.195Z,90.50
2019-04-05T02:03:30.231Z,90.60
2019-04-05T02:05:57.312Z,90.90
2019-04-05T02:08:24.651Z,91.20
2019-04-05T02:10:51.953Z,91.40
2019-04-05T02:13:18.938Z,91.40
2019-04-05T02:15:45.984Z,91.40
2019-04-05T02:18:12.856Z,91.40
2019-04-05T02:20:39.915Z,91.40
2019-04-05T02:23:07.002Z,91.40
2019-04-05T02:25:34.050Z,91.30
2019-04-05T02:28:01.164Z,91.50
2019-04-05T02:30:28.340Z,91.10
2019-04-05T02:32:55.421Z,90.80
2019-04-05T02:35:22.455Z,90.90
2019-04-05T02:37:49.491Z,91.10
2019-04-05T02:40:16.627Z,91.10
2019-04-05T02:42:48.374Z,91.50
2019-04-05T02:45:17.025Z,91.50
2019-04-05T02:47:51.759Z,91.80
2019-04-05T02:50:20.841Z,92.00
2019-04-05T02:52:50.080Z,92.10
2019-04-05T02:55:17.386Z,92.00
2019-04-05T02:57:45.376Z,91.90
2019-04-05T03:00:12.846Z,91.70
2019-04-05T03:02:41.621Z,91.90
2019-04-05T03:05:09.001Z,91.50
2019-04-05T03:07:36.031Z,91.50
2019-04-05T03:10:04.506Z,91.90
2019-04-05T03:12:32.260Z,92.30
2019-04-05T03:15:01.742Z,92.30
2019-04-05T03:17:29.053Z,92.40
2019-04-05T03:19:59.128Z,92.80
2019-04-05T03:22:28.620Z,92.80
2019-04-05T03:24:58.172Z,92.90
2019-04-05T03:27:28.785Z,92.50
2019-04-05T03:29:55.963Z,92.60
2019-04-05T03:32:23.315Z,92.80
2019-04-05T03:34:51.061Z,93.20
2019-04-05T03:37:18.386Z,93.00
2019-04-05T03:39:45.680Z,93.10
2019-04-05T03:42:13.285Z,92.90
2019-04-05T03:44:41.220Z,92.70
2019-04-05T03:47:08.797Z,92.60
2019-04-05T03:49:35.889Z,92.10
2019-04-05T03:52:04.802Z,92.40
2019-04-05T03:54:31.983Z,92.30
2019-04-05T03:56:59.138Z,92.00
2019-04-05T03:59:26.036Z,91.90
2019-04-05T04:01:53.228Z,91.70
2019-04-05T04:04:20.315Z,91.90
2019-04-05T04:06:47.516Z,91.90
2019-04-05T04:09:14.514Z,92.00
2019-04-05T04:11:41.679Z,91.80
2019-04-05T04:14:09.303Z,91.80
2019-04-05T04:16:36.489Z,92.30
2019-04-05T04:19:03.515Z,92.30
2019-04-05T04:21:49.784Z,92.10
2019-04-05T04:24:17.950Z,91.80
2019-04-05T04:26:45.140Z,91.80
2019-04-05T04:29:12.589Z,91.90
2019-04-05T04:31:39.637Z,91.90
2019-04-05T04:34:06.929Z,92.10
2019-04-05T04:36:34.082Z,92.40
2019-04-05T04:39:01.282Z,92.80
2019-04-05T04:41:31.899Z,93.10
2019-04-05T04:43:58.293Z,92.70
2019-04-05T04:46:26.619Z,92.80
2019-04-05T04:48:53.988Z,92.60
2019-04-05T04:51:21.817Z,92.20
2019-04-05T04:53:49.017Z,92.00
2019-04-05T04:56:16.264Z,91.90
2019-04-05T04:58:46.228Z,91.70
2019-04-05T05:01:13.180Z,91.60
2019-04-05T05:03:41.871Z,91.70
2019-04-05T05:06:09.213Z,91.40
2019-04-05T05:08:36.352Z,91.60
2019-04-05T05:11:13.868Z,92.00
2019-04-05T05:13:34.328Z,92.10
2019-04-05T05:16:02.160Z,92.50
2019-04-05T05:18:34.751Z,92.20
2019-04-05T05:21:02.197Z,92.30
2019-04-05T05:23:29.680Z,92.10
2019-04-05T05:25:56.807Z,91.90
2019-04-05T05:28:23.985Z,91.80
2019-04-05T05:30:51.365Z,91.90
2019-04-05T05:33:18.351Z,91.60
2019-04-05T05:35:45.760Z,91.60
2019-04-05T05:38:13.079Z,91.70
2019-04-05T05:40:40.053Z,91.70
2019-04-05T05:43:07.354Z,91.60
2019-04-05T05:45:40.924Z,91.60
2019-04-05T05:48:03.949Z,91.30
2019-04-05T05:50:30.886Z,91.60
2019-04-05T05:52:58.517Z,91.30
2019-04-05T05:55:25.485Z,90.90
2019-04-05T05:57:55.261Z,90.50
2019-04-05T06:00:24.467Z,90.40
2019-04-05T06:02:51.616Z,90.40
2019-04-05T06:05:18.754Z,90.60
2019-04-05T06:07:45.753Z,90.80
2019-04-05T06:10:13.656Z,91.20
2019-04-05T06:12:40.777Z,91.30
2019-04-05T06:15:07.909Z,91.30
2019-04-05T06:17:35.037Z,91.00
2019-04-05T06:20:05.564Z,90.90
2019-04-05T06:22:34.783Z,90.50
2019-04-05T06:25:05.625Z,90.40
2019-04-05T06:27:35.317Z,89.80
2019-04-05T06:30:01.490Z,90.10
2019-04-05T06:32:28.442Z,89.40
2019-04-05T06:34:55.350Z,90.00
2019-04-05T06:37:22.335Z,90.00
2019-04-05T06:39:49.416Z,89.50
2019-04-05T06:42:16.434Z,90.00
2019-04-05T06:44:43.469Z,89.60
2019-04-05T06:47:10.512Z,88.60
2019-04-05T06:49:37.590Z,88.60
2019-04-05T06:52:04.638Z,88.70
2019-04-05T06:54:31.723Z,88.00
2019-04-05T06:56:58.709Z,87.70
2019-04-05T06:59:25.684Z,87.00
2019-04-05T07:01:52.903Z,88.20
2019-04-05T07:04:20.328Z,87.70
2019-04-05T07:06:50.062Z,88.10
2019-04-05T07:09:18.380Z,86.40
2019-04-05T07:11:45.455Z,86.10
2019-04-05T07:14:12.756Z,85.40
2019-04-05T07:16:42.500Z,85.60
2019-04-05T07:19:10.344Z,85.20
2019-04-05T07:21:37.359Z,85.30
2019-04-05T07:24:04.665Z,85.80
2019-04-05T07:26:31.551Z,85.70
2019-04-05T07:29:01.191Z,85.40
2019-04-05T07:31:28.110Z,85.40
2019-04-05T07:33:56.351Z,84.60
2019-04-05T07:36:26.491Z,83.80
2019-04-05T07:38:53.915Z,84.80
2019-04-05T07:41:21.395Z,84.80
2019-04-05T07:43:48.820Z,84.70
2019-04-05T07:46:17.897Z,84.80
2019-04-05T07:48:45.598Z,84.50
2019-04-05T07:51:25.736Z,84.20
2019-04-05T07:53:52.730Z,84.00
2019-04-05T07:56:22.303Z,84.20
2019-04-05T07:58:49.670Z,83.40
2019-04-05T08:01:16.703Z,83.70
2019-04-05T08:03:43.796Z,83.10
2019-04-05T08:06:11.232Z,83.00
2019-04-05T08:09:09.129Z,83.30
2019-04-05T08:11:40.594Z,83.70
2019-04-05T08:14:08.776Z,83.80
2019-04-05T08:16:35.862Z,83.80
2019-04-05T08:19:02.918Z,83.10
2019-04-05T08:21:30.068Z,82.50
2019-04-05T08:23:57.130Z,82.10
2019-04-05T08:26:24.281Z,82.00
2019-04-05T08:28:51.358Z,81.40
2019-04-05T08:31:18.372Z,81.80
2019-04-05T08:33:45.757Z,80.50
2019-04-05T08:36:12.848Z,80.00
2019-04-05T08:38:40.121Z,77.30
2019-04-05T08:41:07.046Z,78.20
2019-04-05T08:43:33.957Z,78.00
2019-04-05T08:46:00.886Z,77.90
2019-04-05T08:48:27.867Z,77.30
2019-04-05T08:50:54.864Z,78.20
2019-04-05T08:53:21.920Z,78.30
2019-04-05T08:55:50.100Z,78.30
2019-04-05T08:58:17.108Z,77.40
2019-04-05T09:00:44.242Z,76.30
2019-04-05T09:03:12.027Z,76.30
2019-04-05T09:05:39.309Z,76.80
2019-04-05T09:08:06.204Z,76.30
2019-04-05T09:10:33.202Z,76.30
2019-04-05T09:13:00.161Z,76.30
2019-04-05T09:15:27.143Z,77.20
2019-04-05T09:17:54.112Z,77.30
2019-04-05T09:20:21.183Z,77.30
2019-04-05T09:22:48.232Z,77.20
2019-04-05T09:25:15.153Z,77.20
2019-04-05T09:27:42.210Z,77.90
2019-04-05T09:30:09.293Z,77.40
2019-04-05T09:32:36.659Z,78.00
2019-04-05T09:35:05.640Z,78.80
2019-04-05T09:37:32.540Z,79.30
2019-04-05T09:39:59.485Z,78.40
2019-04-05T09:42:26.477Z,79.30
2019-04-05T09:44:53.400Z,78.30
2019-04-05T09:47:20.541Z,78.10
2019-04-05T09:49:47.581Z,78.70
2019-04-05T09:52:14.643Z,78.60
2019-04-05T09:54:41.676Z,78.80
2019-04-05T09:57:08.622Z,78.80
2019-04-05T09:59:35.684Z,79.50
2019-04-05T10:02:02.577Z,79.10
2019-04-05T10:04:31.229Z,79.00
2019-04-05T10:06:58.403Z,78.00
2019-04-05T10:09:26.861Z,78.30
2019-04-05T10:11:53.918Z,78.30
2019-04-05T10:14:20.902Z,78.40
2019-04-05T10:16:47.859Z,78.50
2019-04-05T10:19:14.826Z,78.40
2019-04-05T10:21:41.830Z,78.60
2019-04-05T10:24:08.816Z,78.80
2019-04-05T10:26:35.801Z,78.40
2019-04-05T10:29:02.896Z,78.80
2019-04-05T10:31:29.925Z,78.60
2019-04-05T10:33:58.796Z,78.50
2019-04-05T10:36:26.038Z,78.20
2019-04-05T10:38:53.116Z,78.10
2019-04-05T10:41:22.817Z,78.60
2019-04-05T10:43:48.847Z,79.30
2019-04-05T10:46:15.816Z,76.80
2019-04-05T10:48:42.769Z,77.20
2019-04-05T10:51:09.812Z,77.80
2019-04-05T10:53:36.853Z,77.80
2019-04-05T10:56:04.244Z,76.40
2019-04-05T10:58:31.248Z,78.00
2019-04-05T11:00:58.241Z,77.50
2019-04-05T11:03:25.203Z,76.70
2019-04-05T11:05:52.369Z,76.80
2019-04-05T11:08:19.449Z,76.70
2019-04-05T11:10:46.603Z,76.70
2019-04-05T11:13:13.844Z,76.60
2019-04-05T11:15:40.843Z,76.60
2019-04-05T11:18:07.776Z,76.70
2019-04-05T11:20:34.812Z,77.20
2019-04-05T11:23:01.869Z,77.40
2019-04-05T11:25:28.899Z,78.50
2019-04-05T11:27:57.192Z,78.90
2019-04-05T11:30:52.610Z,77.80
2019-04-05T11:33:20.321Z,77.60
2019-04-05T11:35:47.349Z,78.20
2019-04-05T11:38:14.844Z,77.70
2019-04-05T11:40:43.664Z,78.00
2019-04-05T11:43:10.729Z,78.80
2019-04-05T11:45:38.062Z,78.60
2019-04-05T11:48:05.267Z,78.60
2019-04-05T11:50:34.790Z,77.50
2019-04-05T11:53:01.427Z,76.90
2019-04-05T11:55:28.397Z,77.10
2019-04-05T11:57:55.341Z,78.00
2019-04-05T12:00:24.353Z,78.20
2019-04-05T12:02:56.312Z,77.60
2019-04-05T12:05:26.827Z,77.60
2019-04-05T12:07:52.399Z,77.70
2019-04-05T12:10:19.670Z,78.30
2019-04-05T12:12:48.463Z,78.40
2019-04-05T12:15:15.512Z,77.70
2019-04-05T12:17:42.466Z,77.30
2019-04-05T12:20:10.195Z,78.50
2019-04-05T12:22:37.205Z,77.10
2019-04-05T12:25:07.634Z,77.40
2019-04-05T12:27:34.803Z,77.70
2019-04-05T12:30:02.217Z,78.10
2019-04-05T12:32:34.535Z,78.30
2019-04-05T12:34:58.461Z,78.30
2019-04-05T12:37:25.706Z,77.40
2019-04-05T12:39:52.782Z,78.30
2019-04-05T12:42:19.987Z,79.00
2019-04-05T12:44:47.125Z,78.80
2019-04-05T12:47:15.859Z,78.50
2019-04-05T12:49:45.219Z,78.20
2019-04-05T12:52:21.747Z,78.90
2019-04-05T12:54:41.492Z,78.60
2019-04-05T12:57:09.668Z,77.40
2019-04-05T12:59:36.711Z,78.30
2019-04-05T13:02:04.231Z,79.00
2019-04-05T13:04:31.316Z,78.50
2019-04-05T13:06:58.351Z,78.30
2019-04-05T13:09:25.442Z,78.90
2019-04-05T13:11:52.501Z,80.00
2019-04-05T13:14:19.471Z,80.50
2019-04-05T13:16:49.321Z,80.50
2019-04-05T13:19:15.636Z,80.10
2019-04-05T13:21:42.697Z,80.30
2019-04-05T13:24:10.207Z,80.90
2019-04-05T13:26:37.512Z,81.20
2019-04-05T13:29:04.561Z,81.50
2019-04-05T13:31:31.490Z,81.30
2019-04-05T13:33:58.503Z,81.80
2019-04-05T13:36:25.707Z,81.90
2019-04-05T13:38:55.031Z,80.10
2019-04-05T13:41:22.629Z,79.90
2019-04-05T13:43:49.987Z,79.80
2019-04-05T13:46:22.191Z,80.10
2019-04-05T13:48:45.849Z,81.20
2019-04-05T13:51:13.118Z,81.40
2019-04-05T13:53:40.577Z,81.70
2019-04-05T13:56:08.601Z,81.20
2019-04-05T13:58:37.888Z,81.30
2019-04-05T14:01:05.831Z,81.20
2019-04-05T14:03:33.049Z,81.50
2019-04-05T14:06:02.042Z,81.80
2019-04-05T14:08:29.271Z,82.30
2019-04-05T14:10:57.458Z,81.70
2019-04-05T14:13:24.780Z,81.70
2019-04-05T14:15:51.973Z,81.60
2019-04-05T14:18:20.766Z,81.50
2019-04-05T14:20:49.974Z,81.70
2019-04-05T14:23:16.942Z,82.10
2019-04-05T14:25:44.261Z,82.00
2019-04-05T14:28:11.284Z,82.50
2019-04-05T14:30:38.321Z,82.40
2019-04-05T14:33:05.477Z,81.50
2019-04-05T14:35:32.525Z,81.70
2019-04-05T14:37:59.696Z,81.50
2019-04-05T14:40:28.921Z,80.70
2019-04-05T14:42:55.881Z,81.30
2019-04-05T14:45:23.177Z,82.00
2019-04-05T14:47:52.151Z,82.20
2019-04-05T14:50:19.139Z,82.60
2019-04-05T14:52:46.301Z,82.40
2019-04-05T14:55:13.265Z,83.10
2019-04-05T14:57:40.637Z,82.90
2019-04-05T15:00:08.574Z,82.90
2019-04-05T15:02:35.715Z,82.90
2019-04-05T15:05:03.087Z,83.10
2019-04-05T15:07:30.236Z,83.50
2019-04-05T15:09:57.250Z,83.70
2019-04-05T15:12:24.335Z,83.60
2019-04-05T15:14:56.151Z,83.40
2019-04-05T15:17:23.691Z,82.60
2019-04-05T15:19:50.837Z,83.20
2019-04-05T15:22:17.851Z,82.70
2019-04-05T15:24:47.094Z,83.10
2019-04-05T15:27:13.981Z,83.40
2019-04-05T15:29:41.104Z,83.10
2019-04-05T15:32:08.434Z,83.50
2019-04-05T15:34:35.466Z,83.70
2019-04-05T15:37:02.841Z,83.60
2019-04-05T15:39:32.903Z,84.50
2019-04-05T15:42:00.061Z,84.50
2019-04-05T15:44:27.309Z,84.80
2019-04-05T15:46:54.524Z,85.00
2019-04-05T15:49:22.228Z,84.70
2019-04-05T15:51:49.624Z,84.60
2019-04-05T15:54:20.229Z,84.00
2019-04-05T15:56:47.879Z,84.40
2019-04-05T15:59:14.978Z,85.00
2019-04-05T16:01:42.058Z,85.10
2019-04-05T16:04:10.007Z,85.50
2019-04-05T16:06:39.038Z,85.20
2019-04-05T16:09:08.496Z,85.30
2019-04-05T16:11:35.616Z,85.10
2019-04-05T16:14:05.281Z,85.00
2019-04-05T16:16:32.536Z,83.40
2019-04-05T16:19:01.173Z,83.40
2019-04-05T16:21:29.004Z,83.80
2019-04-05T16:23:56.006Z,84.40
2019-04-05T16:26:23.061Z,85.80
2019-04-05T16:28:50.205Z,86.10
2019-04-05T16:31:17.646Z,86.10
2019-04-05T16:33:44.836Z,86.20
2019-04-05T16:36:12.170Z,86.60
2019-04-05T16:38:39.578Z,86.80
2019-04-05T16:41:06.798Z,86.10
2019-04-05T16:43:33.831Z,86.80
2019-04-05T16:46:00.908Z,87.70
2019-04-05T16:48:27.965Z,87.90
2019-04-05T16:50:55.207Z,89.00
2019-04-05T16:53:22.437Z,89.50
2019-04-05T16:55:49.484Z,90.10
2019-04-05T16:58:16.892Z,90.40
2019-04-05T17:00:44.092Z,90.60
2019-04-05T17:03:11.551Z,90.60
2019-04-05T17:05:38.940Z,90.40
2019-04-05T17:08:06.089Z,90.90
2019-04-05T17:10:35.994Z,91.00
2019-04-05T17:13:03.112Z,91.60
2019-04-05T17:15:30.164Z,92.00
2019-04-05T17:17:57.318Z,91.50
2019-04-05T17:20:24.692Z,91.50
2019-04-05T17:22:57.992Z,91.60
2019-04-05T17:25:20.623Z,92.00
2019-04-05T17:27:47.626Z,92.10
2019-04-05T17:30:16.494Z,92.10
2019-04-05T17:32:43.533Z,92.20
2019-04-05T17:35:12.280Z,93.20
2019-04-05T17:37:39.367Z,93.20
2019-04-05T17:40:06.733Z,93.10
2019-04-05T17:42:35.026Z,93.00
2019-04-05T17:45:03.000Z,93.50
2019-04-05T17:47:30.235Z,94.20
2019-04-05T17:49:57.394Z,94.40
2019-04-05T17:52:24.718Z,94.90
2019-04-05T17:54:52.384Z,95.10
2019-04-05T17:57:20.092Z,95.30
2019-04-05T17:59:47.819Z,96.00
2019-04-05T18:02:14.926Z,96.40
2019-04-05T18:04:42.106Z,96.60
2019-04-05T18:07:09.703Z,97.10
2019-04-05T18:09:37.151Z,97.50
2019-04-05T18:12:04.545Z,97.40
2019-04-05T18:14:31.821Z,96.80
2019-04-05T18:16:59.310Z,96.70
2019-04-05T18:19:26.337Z,96.90
2019-04-05T18:21:53.497Z,96.80
2019-04-05T18:24:20.571Z,96.80
2019-04-05T18:26:48.306Z,96.90
2019-04-05T18:29:15.322Z,96.80
2019-04-05T18:31:42.593Z,96.90
2019-04-05T18:34:09.657Z,97.00
2019-04-05T18:36:36.902Z,96.80
2019-04-05T18:39:05.955Z,97.20
2019-04-05T18:41:33.836Z,97.20
2019-04-05T18:44:01.124Z,97.40
2019-04-05T18:46:28.315Z,97.60
2019-04-05T18:48:55.388Z,97.60
2019-04-05T18:51:22.520Z,97.80
2019-04-05T18:53:49.648Z,97.80
2019-04-05T18:56:17.031Z,98.00
2019-04-05T18:58:44.689Z,98.20
2019-04-05T19:01:11.663Z,98.30
2019-04-05T19:03:38.930Z,98.30
2019-04-05T19:06:06.029Z,98.50
2019-04-05T19:08:39.469Z,98.70
2019-04-05T19:11:02.110Z,98.60
2019-04-05T19:13:29.090Z,98.80
2019-04-05T19:15:56.545Z,98.90
2019-04-05T19:18:23.663Z,98.90
2019-04-05T19:20:50.823Z,99.00
2019-04-05T19:23:17.927Z,98.90
2019-04-05T19:25:46.554Z,99.20
2019-04-05T19:28:13.858Z,99.00
2019-04-05T19:50:34.320Z,99.30
2019-04-05T19:53:01.512Z,99.20
2019-04-05T19:55:28.617Z,98.90
2019-04-05T19:57:55.619Z,98.80
2019-04-05T20:00:22.744Z,99.00
2019-04-05T20:02:49.812Z,99.00
2019-04-05T20:05:16.824Z,99.00
2019-04-05T20:07:43.805Z,99.10
2019-04-05T20:10:12.500Z,99.10
2019-04-05T20:12:39.500Z,99.20
2019-04-05T20:15:07.771Z,99.20
2019-04-05T20:17:34.835Z,99.30
2019-04-05T20:20:04.202Z,99.30
2019-04-05T20:22:31.142Z,99.30
2019-04-05T20:24:58.285Z,99.30
2019-04-05T20:27:25.418Z,99.60
2019-04-05T20:29:52.573Z,99.80
2019-04-05T20:32:19.671Z,99.70
2019-04-05T20:34:46.720Z,99.90
2019-04-05T20:37:13.798Z,99.90
2019-04-05T20:39:40.920Z,99.90
2019-04-05T20:42:07.901Z,99.90
2019-04-05T20:44:34.878Z,99.90
2019-04-05T20:47:02.024Z,99.90
2019-04-05T20:49:29.083Z,99.90
2019-04-05T20:51:56.151Z,99.90
2019-04-05T20:54:24.981Z,99.90
2019-04-05T20:56:52.277Z,99.90
2019-04-05T20:59:19.381Z,99.90
2019-04-05T21:01:46.388Z,99.90
2019-04-05T21:04:13.355Z,99.90
2019-04-05T21:06:40.303Z,99.90
2019-04-05T21:09:07.293Z,99.90
2019-04-05T21:11:36.768Z,99.90
2019-04-05T21:14:04.015Z,99.90
2019-04-05T21:16:31.066Z,99.90
2019-04-05T21:18:58.090Z,99.90
2019-04-05T21:21:25.200Z,99.90
2019-04-05T21:23:52.491Z,99.90
2019-04-05T21:26:19.943Z,99.90
2019-04-05T21:28:47.041Z,99.90
2019-04-05T21:31:14.159Z,99.90
2019-04-05T21:33:41.243Z,99.90
2019-04-05T21:36:08.315Z,99.90
2019-04-05T21:38:35.689Z,99.70
2019-04-05T21:41:02.755Z,98.90
2019-04-05T21:43:29.939Z,98.80
2019-04-05T21:45:57.302Z,98.10
2019-04-05T21:48:24.293Z,98.20
2019-04-05T21:50:51.281Z,98.40
2019-04-05T21:53:19.092Z,98.60
2019-04-05T21:55:47.803Z,98.80
2019-04-05T21:58:14.933Z,98.80
2019-04-05T22:00:50.396Z,98.70
2019-04-05T22:03:17.593Z,98.60
2019-04-05T22:05:44.658Z,98.60
2019-04-05T22:08:11.748Z,98.90
2019-04-05T22:10:39.198Z,98.70
2019-04-05T22:13:06.212Z,98.80
2019-04-05T22:15:33.362Z,98.50
2019-04-05T22:18:04.356Z,98.90
2019-04-05T22:20:31.368Z,98.50
2019-04-05T22:22:58.616Z,98.40
2019-04-05T22:25:25.615Z,98.30
2019-04-05T22:27:52.593Z,98.50
2019-04-05T22:30:20.148Z,98.50
2019-04-05T22:32:47.314Z,99.10
2019-04-05T22:35:14.462Z,99.10
2019-04-05T22:37:41.461Z,99.20
2019-04-05T22:40:08.758Z,99.20
2019-04-05T22:42:35.763Z,99.20
2019-04-05T22:45:03.067Z,99.00
2019-04-05T22:47:30.033Z,98.90
2019-04-05T22:49:57.089Z,98.60
2019-04-05T22:52:23.979Z,98.70
2019-04-05T22:54:50.965Z,98.70
2019-04-05T22:57:17.920Z,99.10
2019-04-05T22:59:44.896Z,99.30
2019-04-05T23:02:11.953Z,99.20
2019-04-05T23:04:38.947Z,99.30
2019-04-05T23:07:05.953Z,99.50
2019-04-05T23:09:32.899Z,99.60
2019-04-05T23:11:59.865Z,99.80
2019-04-05T23:14:26.746Z,99.70
2019-04-05T23:16:53.798Z,99.80
2019-04-05T23:19:20.932Z,99.70
2019-04-05T23:21:48.090Z,99.80
2019-04-05T23:24:15.205Z,99.90
2019-04-05T23:26:42.226Z,99.90
2019-04-05T23:29:09.240Z,99.90
2019-04-05T23:31:36.382Z,99.90
2019-04-05T23:34:04.402Z,99.90
2019-04-05T23:36:31.335Z,99.90
2019-04-05T23:38:58.507Z,99.90
2019-04-05T23:41:25.559Z,99.90
2019-04-05T23:43:52.599Z,99.90
2019-04-05T23:46:20.813Z,99.90
2019-04-05T23:48:47.889Z,99.90
2019-04-05T23:51:14.908Z,99.90
2019-04-05T23:53:41.835Z,99.90
2019-04-05T23:56:08.919Z,99.90
2019-04-05T23:58:35.988Z,99.90
